sensor_id;sensor_type;location;lat;lon;timestamp;P1;durP1;ratioP1;P2;durP2;ratioP2
60318;SDS011;46163;52.306;5.634;2023-05-06T00:01:55;1.13;;;1.02;;
60318;SDS011;46163;52.306;5.634;2023-05-06T00:04:21;1.05;;;1.05;;
60318;SDS011;46163;52.306;5.634;2023-05-06T00:06:46;1.10;;;1.10;;
60318;SDS011;46163;52.306;5.634;2023-05-06T00:09:13;1.17;;;1.08;;
60318;SDS011;46163;52.306;5.634;2023-05-06T00:11:38;1.17;;;1.17;;
60318;SDS011;46163;52.306;5.634;2023-05-06T00:14:04;1.05;;;1.05;;
60318;SDS011;46163;52.306;5.634;2023-05-06T00:16:30;5.57;;;1.27;;
60318;SDS011;46163;52.306;5.634;2023-05-06T00:18:55;0.88;;;0.88;;
60318;SDS011;46163;52.306;5.634;2023-05-06T00:21:21;1.00;;;1.00;;
60318;SDS011;46163;52.306;5.634;2023-05-06T00:23:46;1.10;;;1.10;;
60318;SDS011;46163;52.306;5.634;2023-05-06T00:26:12;1.25;;;1.23;;
60318;SDS011;46163;52.306;5.634;2023-05-06T00:28:37;1.25;;;1.10;;
60318;SDS011;46163;52.306;5.634;2023-05-06T00:31:03;1.00;;;1.00;;
60318;SDS011;46163;52.306;5.634;2023-05-06T00:33:28;1.25;;;1.00;;
60318;SDS011;46163;52.306;5.634;2023-05-06T00:35:54;1.13;;;1.10;;
60318;SDS011;46163;52.306;5.634;2023-05-06T00:38:20;1.05;;;1.00;;
60318;SDS011;46163;52.306;5.634;2023-05-06T00:40:45;1.17;;;1.08;;
60318;SDS011;46163;52.306;5.634;2023-05-06T00:43:10;1.50;;;1.40;;
60318;SDS011;46163;52.306;5.634;2023-05-06T00:45:37;0.88;;;0.88;;
60318;SDS011;46163;52.306;5.634;2023-05-06T00:48:03;1.00;;;1.00;;
60318;SDS011;46163;52.306;5.634;2023-05-06T00:50:29;1.15;;;1.10;;
60318;SDS011;46163;52.306;5.634;2023-05-06T00:52:57;1.10;;;1.00;;
60318;SDS011;46163;52.306;5.634;2023-05-06T00:55:23;0.90;;;0.90;;
60318;SDS011;46163;52.306;5.634;2023-05-06T00:57:49;0.90;;;0.90;;
60318;SDS011;46163;52.306;5.634;2023-05-06T01:00:16;1.05;;;1.05;;
60318;SDS011;46163;52.306;5.634;2023-05-06T01:02:42;1.00;;;1.00;;
60318;SDS011;46163;52.306;5.634;2023-05-06T01:05:08;1.05;;;1.00;;
60318;SDS011;46163;52.306;5.634;2023-05-06T01:07:39;1.33;;;1.13;;
60318;SDS011;46163;52.306;5.634;2023-05-06T01:10:12;0.85;;;0.85;;
60318;SDS011;46163;52.306;5.634;2023-05-06T01:15:21;1.63;;;1.20;;
60318;SDS011;46163;52.306;5.634;2023-05-06T01:18:10;0.93;;;0.93;;
60318;SDS011;46163;52.306;5.634;2023-05-06T01:20:39;1.02;;;1.02;;
60318;SDS011;46163;52.306;5.634;2023-05-06T01:23:16;1.27;;;1.17;;
60318;SDS011;46163;52.306;5.634;2023-05-06T01:25:43;1.20;;;1.10;;
60318;SDS011;46163;52.306;5.634;2023-05-06T01:28:09;1.20;;;1.10;;
60318;SDS011;46163;52.306;5.634;2023-05-06T01:38:48;1.27;;;1.17;;
60318;SDS011;46163;52.306;5.634;2023-05-06T01:41:19;0.90;;;0.90;;
60318;SDS011;46163;52.306;5.634;2023-05-06T01:43:47;1.13;;;1.13;;
60318;SDS011;46163;52.306;5.634;2023-05-06T01:46:14;1.02;;;1.00;;
60318;SDS011;46163;52.306;5.634;2023-05-06T01:48:44;1.50;;;1.13;;
60318;SDS011;46163;52.306;5.634;2023-05-06T01:51:11;1.50;;;1.10;;
60318;SDS011;46163;52.306;5.634;2023-05-06T01:53:36;0.95;;;0.95;;
60318;SDS011;46163;52.306;5.634;2023-05-06T01:56:02;1.10;;;1.10;;
60318;SDS011;46163;52.306;5.634;2023-05-06T01:58:28;0.90;;;0.90;;
60318;SDS011;46163;52.306;5.634;2023-05-06T02:00:54;0.95;;;0.95;;
60318;SDS011;46163;52.306;5.634;2023-05-06T02:03:19;1.05;;;1.05;;
60318;SDS011;46163;52.306;5.634;2023-05-06T02:05:45;1.70;;;1.20;;
60318;SDS011;46163;52.306;5.634;2023-05-06T02:08:10;0.88;;;0.88;;
60318;SDS011;46163;52.306;5.634;2023-05-06T02:10:38;0.90;;;0.90;;
60318;SDS011;46163;52.306;5.634;2023-05-06T02:13:04;0.93;;;0.93;;
60318;SDS011;46163;52.306;5.634;2023-05-06T02:15:30;1.15;;;1.15;;
60318;SDS011;46163;52.306;5.634;2023-05-06T02:17:56;1.02;;;1.02;;
60318;SDS011;46163;52.306;5.634;2023-05-06T02:20:21;1.35;;;1.25;;
60318;SDS011;46163;52.306;5.634;2023-05-06T02:22:47;0.73;;;0.73;;
60318;SDS011;46163;52.306;5.634;2023-05-06T02:25:12;0.77;;;0.77;;
60318;SDS011;46163;52.306;5.634;2023-05-06T02:27:38;1.15;;;0.88;;
60318;SDS011;46163;52.306;5.634;2023-05-06T02:30:03;1.25;;;1.20;;
60318;SDS011;46163;52.306;5.634;2023-05-06T02:32:31;1.00;;;1.00;;
60318;SDS011;46163;52.306;5.634;2023-05-06T02:34:56;1.10;;;1.10;;
60318;SDS011;46163;52.306;5.634;2023-05-06T02:37:21;1.10;;;1.10;;
60318;SDS011;46163;52.306;5.634;2023-05-06T02:39:47;0.98;;;0.98;;
60318;SDS011;46163;52.306;5.634;2023-05-06T02:42:13;1.48;;;1.10;;
60318;SDS011;46163;52.306;5.634;2023-05-06T02:44:39;1.20;;;1.20;;
60318;SDS011;46163;52.306;5.634;2023-05-06T02:47:05;1.10;;;1.00;;
60318;SDS011;46163;52.306;5.634;2023-05-06T02:49:30;1.02;;;1.02;;
60318;SDS011;46163;52.306;5.634;2023-05-06T02:51:56;1.20;;;1.10;;
60318;SDS011;46163;52.306;5.634;2023-05-06T02:54:21;1.45;;;1.10;;
60318;SDS011;46163;52.306;5.634;2023-05-06T02:56:47;0.98;;;0.98;;
60318;SDS011;46163;52.306;5.634;2023-05-06T02:59:14;0.98;;;0.98;;
60318;SDS011;46163;52.306;5.634;2023-05-06T03:01:40;2.38;;;1.00;;
60318;SDS011;46163;52.306;5.634;2023-05-06T03:04:06;1.00;;;1.00;;
60318;SDS011;46163;52.306;5.634;2023-05-06T03:06:31;1.15;;;1.10;;
60318;SDS011;46163;52.306;5.634;2023-05-06T03:08:56;1.17;;;1.13;;
60318;SDS011;46163;52.306;5.634;2023-05-06T03:11:22;1.00;;;1.00;;
60318;SDS011;46163;52.306;5.634;2023-05-06T03:13:48;1.10;;;1.10;;
60318;SDS011;46163;52.306;5.634;2023-05-06T03:16:13;1.10;;;1.10;;
60318;SDS011;46163;52.306;5.634;2023-05-06T03:18:39;1.00;;;1.00;;
60318;SDS011;46163;52.306;5.634;2023-05-06T03:21:04;1.00;;;1.00;;
60318;SDS011;46163;52.306;5.634;2023-05-06T03:23:30;0.93;;;0.93;;
60318;SDS011;46163;52.306;5.634;2023-05-06T03:25:56;0.95;;;0.95;;
60318;SDS011;46163;52.306;5.634;2023-05-06T03:28:21;1.00;;;1.00;;
60318;SDS011;46163;52.306;5.634;2023-05-06T03:30:47;1.08;;;1.08;;
60318;SDS011;46163;52.306;5.634;2023-05-06T03:33:13;0.93;;;0.93;;
60318;SDS011;46163;52.306;5.634;2023-05-06T03:35:38;1.10;;;1.00;;
60318;SDS011;46163;52.306;5.634;2023-05-06T03:38:04;1.55;;;1.17;;
60318;SDS011;46163;52.306;5.634;2023-05-06T03:42:57;1.20;;;1.10;;
60318;SDS011;46163;52.306;5.634;2023-05-06T03:45:23;0.90;;;0.90;;
60318;SDS011;46163;52.306;5.634;2023-05-06T03:47:49;1.00;;;1.00;;
60318;SDS011;46163;52.306;5.634;2023-05-06T03:50:14;0.90;;;0.90;;
60318;SDS011;46163;52.306;5.634;2023-05-06T03:52:42;0.88;;;0.88;;
60318;SDS011;46163;52.306;5.634;2023-05-06T03:55:08;1.00;;;1.00;;
60318;SDS011;46163;52.306;5.634;2023-05-06T03:57:33;0.82;;;0.82;;
60318;SDS011;46163;52.306;5.634;2023-05-06T03:59:59;0.93;;;0.93;;
60318;SDS011;46163;52.306;5.634;2023-05-06T04:02:25;1.10;;;1.10;;
60318;SDS011;46163;52.306;5.634;2023-05-06T04:04:50;1.00;;;1.00;;
60318;SDS011;46163;52.306;5.634;2023-05-06T04:07:16;0.95;;;0.95;;
60318;SDS011;46163;52.306;5.634;2023-05-06T04:09:42;0.98;;;0.90;;
60318;SDS011;46163;52.306;5.634;2023-05-06T04:12:07;1.20;;;1.10;;
60318;SDS011;46163;52.306;5.634;2023-05-06T04:14:33;1.10;;;1.10;;
60318;SDS011;46163;52.306;5.634;2023-05-06T04:16:58;0.90;;;0.90;;
60318;SDS011;46163;52.306;5.634;2023-05-06T04:19:24;1.05;;;1.05;;
60318;SDS011;46163;52.306;5.634;2023-05-06T04:21:49;1.00;;;1.00;;
60318;SDS011;46163;52.306;5.634;2023-05-06T04:24:17;0.80;;;0.80;;
60318;SDS011;46163;52.306;5.634;2023-05-06T04:26:42;1.10;;;1.10;;
60318;SDS011;46163;52.306;5.634;2023-05-06T04:29:08;1.02;;;1.02;;
60318;SDS011;46163;52.306;5.634;2023-05-06T04:31:35;1.15;;;0.93;;
60318;SDS011;46163;52.306;5.634;2023-05-06T04:34:01;1.00;;;1.00;;
60318;SDS011;46163;52.306;5.634;2023-05-06T04:36:26;1.00;;;1.00;;
60318;SDS011;46163;52.306;5.634;2023-05-06T04:38:52;1.42;;;1.20;;
60318;SDS011;46163;52.306;5.634;2023-05-06T04:41:18;0.98;;;0.98;;
60318;SDS011;46163;52.306;5.634;2023-05-06T04:43:44;1.02;;;1.02;;
60318;SDS011;46163;52.306;5.634;2023-05-06T04:46:10;0.90;;;0.90;;
60318;SDS011;46163;52.306;5.634;2023-05-06T04:48:35;1.20;;;1.15;;
60318;SDS011;46163;52.306;5.634;2023-05-06T04:51:01;1.10;;;1.10;;
60318;SDS011;46163;52.306;5.634;2023-05-06T04:53:30;1.08;;;1.08;;
60318;SDS011;46163;52.306;5.634;2023-05-06T04:55:55;1.20;;;1.10;;
60318;SDS011;46163;52.306;5.634;2023-05-06T04:58:21;0.80;;;0.80;;
60318;SDS011;46163;52.306;5.634;2023-05-06T05:00:46;0.98;;;0.98;;
60318;SDS011;46163;52.306;5.634;2023-05-06T05:03:12;0.93;;;0.93;;
60318;SDS011;46163;52.306;5.634;2023-05-06T05:05:38;0.90;;;0.90;;
60318;SDS011;46163;52.306;5.634;2023-05-06T05:08:03;0.98;;;0.98;;
60318;SDS011;46163;52.306;5.634;2023-05-06T05:10:29;1.00;;;1.00;;
60318;SDS011;46163;52.306;5.634;2023-05-06T05:12:54;0.90;;;0.90;;
60318;SDS011;46163;52.306;5.634;2023-05-06T05:15:20;1.10;;;1.10;;
60318;SDS011;46163;52.306;5.634;2023-05-06T05:17:45;1.00;;;1.00;;
60318;SDS011;46163;52.306;5.634;2023-05-06T05:20:14;0.70;;;0.70;;
60318;SDS011;46163;52.306;5.634;2023-05-06T05:22:39;0.90;;;0.90;;
60318;SDS011;46163;52.306;5.634;2023-05-06T05:25:05;0.90;;;0.90;;
60318;SDS011;46163;52.306;5.634;2023-05-06T05:27:31;1.30;;;1.20;;
60318;SDS011;46163;52.306;5.634;2023-05-06T05:29:57;1.20;;;0.98;;
60318;SDS011;46163;52.306;5.634;2023-05-06T05:32:22;1.10;;;1.10;;
60318;SDS011;46163;52.306;5.634;2023-05-06T05:34:48;1.05;;;1.05;;
60318;SDS011;46163;52.306;5.634;2023-05-06T05:37:13;1.08;;;1.00;;
60318;SDS011;46163;52.306;5.634;2023-05-06T05:39:39;0.88;;;0.88;;
60318;SDS011;46163;52.306;5.634;2023-05-06T05:42:04;1.20;;;1.10;;
60318;SDS011;46163;52.306;5.634;2023-05-06T05:44:30;1.00;;;1.00;;
60318;SDS011;46163;52.306;5.634;2023-05-06T05:46:55;0.90;;;0.90;;
60318;SDS011;46163;52.306;5.634;2023-05-06T05:49:21;0.93;;;0.93;;
60318;SDS011;46163;52.306;5.634;2023-05-06T05:51:46;1.02;;;1.02;;
60318;SDS011;46163;52.306;5.634;2023-05-06T05:54:12;0.95;;;0.95;;
60318;SDS011;46163;52.306;5.634;2023-05-06T05:56:38;0.90;;;0.90;;
60318;SDS011;46163;52.306;5.634;2023-05-06T05:59:04;0.88;;;0.88;;
60318;SDS011;46163;52.306;5.634;2023-05-06T06:01:29;1.13;;;0.98;;
60318;SDS011;46163;52.306;5.634;2023-05-06T06:03:55;1.00;;;1.00;;
60318;SDS011;46163;52.306;5.634;2023-05-06T06:06:21;0.90;;;0.90;;
60318;SDS011;46163;52.306;5.634;2023-05-06T06:08:48;1.35;;;1.10;;
60318;SDS011;46163;52.306;5.634;2023-05-06T06:11:13;0.90;;;0.90;;
60318;SDS011;46163;52.306;5.634;2023-05-06T06:13:39;1.10;;;1.10;;
60318;SDS011;46163;52.306;5.634;2023-05-06T06:16:05;1.00;;;1.00;;
60318;SDS011;46163;52.306;5.634;2023-05-06T06:18:30;1.00;;;1.00;;
60318;SDS011;46163;52.306;5.634;2023-05-06T06:20:56;1.10;;;1.10;;
60318;SDS011;46163;52.306;5.634;2023-05-06T06:23:21;1.00;;;1.00;;
60318;SDS011;46163;52.306;5.634;2023-05-06T06:25:47;1.02;;;1.02;;
60318;SDS011;46163;52.306;5.634;2023-05-06T06:28:13;0.95;;;0.95;;
60318;SDS011;46163;52.306;5.634;2023-05-06T06:30:38;1.23;;;1.10;;
60318;SDS011;46163;52.306;5.634;2023-05-06T06:33:05;1.00;;;1.00;;
60318;SDS011;46163;52.306;5.634;2023-05-06T06:35:30;1.10;;;1.10;;
60318;SDS011;46163;52.306;5.634;2023-05-06T06:37:56;1.00;;;1.00;;
60318;SDS011;46163;52.306;5.634;2023-05-06T06:40:24;1.38;;;1.27;;
60318;SDS011;46163;52.306;5.634;2023-05-06T06:42:50;2.90;;;1.08;;
60318;SDS011;46163;52.306;5.634;2023-05-06T06:45:16;1.00;;;0.95;;
60318;SDS011;46163;52.306;5.634;2023-05-06T06:47:41;1.40;;;1.30;;
60318;SDS011;46163;52.306;5.634;2023-05-06T06:50:07;1.13;;;1.13;;
60318;SDS011;46163;52.306;5.634;2023-05-06T06:52:34;1.20;;;1.20;;
60318;SDS011;46163;52.306;5.634;2023-05-06T06:55:00;1.60;;;1.50;;
60318;SDS011;46163;52.306;5.634;2023-05-06T06:57:26;1.48;;;1.23;;
60318;SDS011;46163;52.306;5.634;2023-05-06T06:59:51;1.30;;;1.20;;
60318;SDS011;46163;52.306;5.634;2023-05-06T07:02:20;1.60;;;1.10;;
60318;SDS011;46163;52.306;5.634;2023-05-06T07:04:46;1.25;;;1.25;;
60318;SDS011;46163;52.306;5.634;2023-05-06T07:07:11;1.55;;;1.10;;
60318;SDS011;46163;52.306;5.634;2023-05-06T07:09:37;2.28;;;1.30;;
60318;SDS011;46163;52.306;5.634;2023-05-06T07:12:04;1.35;;;1.25;;
60318;SDS011;46163;52.306;5.634;2023-05-06T07:14:33;1.38;;;1.27;;
60318;SDS011;46163;52.306;5.634;2023-05-06T07:16:58;1.35;;;1.30;;
60318;SDS011;46163;52.306;5.634;2023-05-06T07:19:25;1.45;;;1.35;;
60318;SDS011;46163;52.306;5.634;2023-05-06T07:21:51;1.42;;;1.30;;
60318;SDS011;46163;52.306;5.634;2023-05-06T07:24:16;1.38;;;1.23;;
60318;SDS011;46163;52.306;5.634;2023-05-06T07:26:42;5.60;;;1.33;;
60318;SDS011;46163;52.306;5.634;2023-05-06T07:29:08;1.45;;;1.35;;
60318;SDS011;46163;52.306;5.634;2023-05-06T07:31:33;2.50;;;1.55;;
60318;SDS011;46163;52.306;5.634;2023-05-06T07:33:59;1.60;;;1.50;;
60318;SDS011;46163;52.306;5.634;2023-05-06T07:36:25;3.20;;;1.55;;
60318;SDS011;46163;52.306;5.634;2023-05-06T07:38:51;3.38;;;1.67;;
60318;SDS011;46163;52.306;5.634;2023-05-06T07:41:17;1.70;;;1.60;;
60318;SDS011;46163;52.306;5.634;2023-05-06T07:43:43;1.60;;;1.50;;
60318;SDS011;46163;52.306;5.634;2023-05-06T07:46:09;1.67;;;1.58;;
60318;SDS011;46163;52.306;5.634;2023-05-06T07:48:35;1.20;;;1.20;;
60318;SDS011;46163;52.306;5.634;2023-05-06T07:51:02;1.30;;;1.30;;
60318;SDS011;46163;52.306;5.634;2023-05-06T07:53:28;1.17;;;1.17;;
60318;SDS011;46163;52.306;5.634;2023-05-06T07:55:53;3.00;;;1.30;;
60318;SDS011;46163;52.306;5.634;2023-05-06T07:58:25;1.30;;;1.30;;
60318;SDS011;46163;52.306;5.634;2023-05-06T08:00:52;1.40;;;1.30;;
60318;SDS011;46163;52.306;5.634;2023-05-06T08:03:17;1.15;;;1.15;;
60318;SDS011;46163;52.306;5.634;2023-05-06T08:05:43;1.83;;;1.40;;
60318;SDS011;46163;52.306;5.634;2023-05-06T08:08:08;1.15;;;1.15;;
60318;SDS011;46163;52.306;5.634;2023-05-06T08:10:34;4.13;;;1.10;;
60318;SDS011;46163;52.306;5.634;2023-05-06T08:13:01;1.60;;;1.38;;
60318;SDS011;46163;52.306;5.634;2023-05-06T08:15:27;1.33;;;1.23;;
60318;SDS011;46163;52.306;5.634;2023-05-06T08:17:52;1.52;;;1.42;;
60318;SDS011;46163;52.306;5.634;2023-05-06T08:20:19;1.55;;;1.45;;
60318;SDS011;46163;52.306;5.634;2023-05-06T08:22:45;1.20;;;1.20;;
60318;SDS011;46163;52.306;5.634;2023-05-06T08:25:10;1.63;;;1.52;;
60318;SDS011;46163;52.306;5.634;2023-05-06T08:27:36;1.40;;;1.30;;
60318;SDS011;46163;52.306;5.634;2023-05-06T08:30:02;1.63;;;1.52;;
60318;SDS011;46163;52.306;5.634;2023-05-06T08:32:27;1.10;;;1.10;;
60318;SDS011;46163;52.306;5.634;2023-05-06T08:34:53;1.25;;;1.20;;
60318;SDS011;46163;52.306;5.634;2023-05-06T08:37:18;1.27;;;1.17;;
60318;SDS011;46163;52.306;5.634;2023-05-06T08:39:44;1.55;;;1.10;;
60318;SDS011;46163;52.306;5.634;2023-05-06T08:42:09;1.48;;;1.40;;
60318;SDS011;46163;52.306;5.634;2023-05-06T08:44:38;1.08;;;1.08;;
60318;SDS011;46163;52.306;5.634;2023-05-06T08:47:03;1.65;;;1.20;;
60318;SDS011;46163;52.306;5.634;2023-05-06T08:49:29;1.17;;;1.10;;
60318;SDS011;46163;52.306;5.634;2023-05-06T08:51:54;1.13;;;1.08;;
60318;SDS011;46163;52.306;5.634;2023-05-06T08:54:21;1.35;;;1.23;;
60318;SDS011;46163;52.306;5.634;2023-05-06T08:56:53;1.63;;;1.15;;
60318;SDS011;46163;52.306;5.634;2023-05-06T08:59:24;1.33;;;1.23;;
60318;SDS011;46163;52.306;5.634;2023-05-06T09:01:54;1.40;;;1.30;;
60318;SDS011;46163;52.306;5.634;2023-05-06T09:04:23;1.05;;;1.02;;
60318;SDS011;46163;52.306;5.634;2023-05-06T09:06:49;0.90;;;0.90;;
60318;SDS011;46163;52.306;5.634;2023-05-06T09:09:15;1.30;;;1.23;;
60318;SDS011;46163;52.306;5.634;2023-05-06T09:11:41;1.83;;;0.98;;
60318;SDS011;46163;52.306;5.634;2023-05-06T09:14:13;3.35;;;1.20;;
60318;SDS011;46163;52.306;5.634;2023-05-06T09:16:43;1.40;;;1.30;;
60318;SDS011;46163;52.306;5.634;2023-05-06T09:19:11;1.30;;;1.20;;
60318;SDS011;46163;52.306;5.634;2023-05-06T09:21:38;1.08;;;1.08;;
60318;SDS011;46163;52.306;5.634;2023-05-06T09:24:06;1.30;;;1.20;;
60318;SDS011;46163;52.306;5.634;2023-05-06T09:26:33;1.10;;;1.10;;
60318;SDS011;46163;52.306;5.634;2023-05-06T09:29:00;1.10;;;1.10;;
60318;SDS011;46163;52.306;5.634;2023-05-06T09:31:26;3.00;;;1.20;;
60318;SDS011;46163;52.306;5.634;2023-05-06T09:33:53;1.30;;;1.20;;
60318;SDS011;46163;52.306;5.634;2023-05-06T09:36:23;1.92;;;1.20;;
60318;SDS011;46163;52.306;5.634;2023-05-06T09:38:51;1.30;;;1.25;;
60318;SDS011;46163;52.306;5.634;2023-05-06T09:41:21;1.65;;;1.08;;
60318;SDS011;46163;52.306;5.634;2023-05-06T09:43:50;1.08;;;0.98;;
60318;SDS011;46163;52.306;5.634;2023-05-06T09:46:17;1.15;;;1.00;;
60318;SDS011;46163;52.306;5.634;2023-05-06T09:48:43;1.17;;;1.10;;
60318;SDS011;46163;52.306;5.634;2023-05-06T09:51:10;1.03;;;1.00;;
60318;SDS011;46163;52.306;5.634;2023-05-06T09:53:37;2.97;;;1.30;;
60318;SDS011;46163;52.306;5.634;2023-05-06T09:56:03;1.30;;;1.17;;
60318;SDS011;46163;52.306;5.634;2023-05-06T09:58:35;1.38;;;1.27;;
60318;SDS011;46163;52.306;5.634;2023-05-06T10:01:03;1.38;;;1.27;;
60318;SDS011;46163;52.306;5.634;2023-05-06T10:03:29;0.98;;;0.98;;
60318;SDS011;46163;52.306;5.634;2023-05-06T10:05:56;1.30;;;1.15;;
60318;SDS011;46163;52.306;5.634;2023-05-06T10:08:24;4.28;;;1.33;;
60318;SDS011;46163;52.306;5.634;2023-05-06T10:10:51;1.30;;;1.20;;
60318;SDS011;46163;52.306;5.634;2023-05-06T10:13:18;1.20;;;1.20;;
60318;SDS011;46163;52.306;5.634;2023-05-06T10:18:12;1.20;;;1.10;;
60318;SDS011;46163;52.306;5.634;2023-05-06T10:20:44;3.42;;;1.30;;
60318;SDS011;46163;52.306;5.634;2023-05-06T10:25:59;1.13;;;1.00;;
60318;SDS011;46163;52.306;5.634;2023-05-06T10:28:31;1.30;;;1.20;;
60318;SDS011;46163;52.306;5.634;2023-05-06T10:31:02;1.10;;;1.10;;
60318;SDS011;46163;52.306;5.634;2023-05-06T10:33:29;3.50;;;1.30;;
60318;SDS011;46163;52.306;5.634;2023-05-06T10:38:43;1.20;;;1.10;;
60318;SDS011;46163;52.306;5.634;2023-05-06T10:41:11;2.17;;;1.20;;
60318;SDS011;46163;52.306;5.634;2023-05-06T10:43:38;2.88;;;1.58;;
60318;SDS011;46163;52.306;5.634;2023-05-06T10:46:15;0.95;;;0.95;;
60318;SDS011;46163;52.306;5.634;2023-05-06T10:51:35;2.08;;;1.02;;
60318;SDS011;46163;52.306;5.634;2023-05-06T10:54:08;1.02;;;1.00;;
60318;SDS011;46163;52.306;5.634;2023-05-06T10:59:08;1.13;;;1.00;;
60318;SDS011;46163;52.306;5.634;2023-05-06T11:01:36;2.03;;;1.30;;
60318;SDS011;46163;52.306;5.634;2023-05-06T11:04:09;3.15;;;1.23;;
60318;SDS011;46163;52.306;5.634;2023-05-06T11:09:16;4.32;;;1.25;;
60318;SDS011;46163;52.306;5.634;2023-05-06T11:11:51;1.83;;;1.20;;
60318;SDS011;46163;52.306;5.634;2023-05-06T11:14:27;3.60;;;1.30;;
60318;SDS011;46163;52.306;5.634;2023-05-06T11:17:01;2.35;;;1.20;;
60318;SDS011;46163;52.306;5.634;2023-05-06T11:19:28;2.45;;;1.20;;
60318;SDS011;46163;52.306;5.634;2023-05-06T11:27:06;1.15;;;1.10;;
60318;SDS011;46163;52.306;5.634;2023-05-06T11:29:33;1.40;;;1.00;;
60318;SDS011;46163;52.306;5.634;2023-05-06T11:31:58;1.00;;;1.00;;
60318;SDS011;46163;52.306;5.634;2023-05-06T11:34:30;1.17;;;1.17;;
60318;SDS011;46163;52.306;5.634;2023-05-06T11:37:06;0.93;;;0.93;;
60318;SDS011;46163;52.306;5.634;2023-05-06T11:39:33;1.15;;;1.13;;
60318;SDS011;46163;52.306;5.634;2023-05-06T11:42:01;3.50;;;1.10;;
60318;SDS011;46163;52.306;5.634;2023-05-06T11:44:30;1.10;;;1.10;;
60318;SDS011;46163;52.306;5.634;2023-05-06T11:47:03;3.03;;;1.13;;
60318;SDS011;46163;52.306;5.634;2023-05-06T11:50:03;1.83;;;1.10;;
60318;SDS011;46163;52.306;5.634;2023-05-06T11:52:23;3.42;;;1.23;;
60318;SDS011;46163;52.306;5.634;2023-05-06T11:54:49;2.15;;;1.20;;
60318;SDS011;46163;52.306;5.634;2023-05-06T11:57:18;2.50;;;1.15;;
60318;SDS011;46163;52.306;5.634;2023-05-06T11:59:44;2.20;;;1.02;;
60318;SDS011;46163;52.306;5.634;2023-05-06T12:02:11;1.20;;;1.10;;
60318;SDS011;46163;52.306;5.634;2023-05-06T12:04:44;1.67;;;1.00;;
60318;SDS011;46163;52.306;5.634;2023-05-06T12:07:12;1.45;;;1.17;;
60318;SDS011;46163;52.306;5.634;2023-05-06T12:09:46;1.20;;;1.10;;
60318;SDS011;46163;52.306;5.634;2023-05-06T12:12:18;1.42;;;1.10;;
60318;SDS011;46163;52.306;5.634;2023-05-06T12:14:46;1.30;;;1.20;;
60318;SDS011;46163;52.306;5.634;2023-05-06T12:17:13;2.10;;;1.50;;
60318;SDS011;46163;52.306;5.634;2023-05-06T12:19:39;2.35;;;1.27;;
60318;SDS011;46163;52.306;5.634;2023-05-06T12:22:17;2.15;;;1.23;;
60318;SDS011;46163;52.306;5.634;2023-05-06T12:24:48;2.33;;;1.20;;
60318;SDS011;46163;52.306;5.634;2023-05-06T12:27:27;1.65;;;1.30;;
60318;SDS011;46163;52.306;5.634;2023-05-06T12:29:56;3.03;;;1.23;;
60318;SDS011;46163;52.306;5.634;2023-05-06T12:32:21;2.65;;;1.40;;
60318;SDS011;46163;52.306;5.634;2023-05-06T12:34:46;2.13;;;1.33;;
60318;SDS011;46163;52.306;5.634;2023-05-06T12:37:22;2.05;;;1.50;;
60318;SDS011;46163;52.306;5.634;2023-05-06T12:39:48;1.65;;;1.50;;
60318;SDS011;46163;52.306;5.634;2023-05-06T12:42:18;2.00;;;1.23;;
60318;SDS011;46163;52.306;5.634;2023-05-06T12:44:44;1.65;;;1.33;;
60318;SDS011;46163;52.306;5.634;2023-05-06T12:49:49;3.88;;;1.35;;
60318;SDS011;46163;52.306;5.634;2023-05-06T12:52:18;2.38;;;1.33;;
60318;SDS011;46163;52.306;5.634;2023-05-06T12:54:45;2.22;;;1.50;;
60318;SDS011;46163;52.306;5.634;2023-05-06T12:57:11;3.83;;;1.40;;
60318;SDS011;46163;52.306;5.634;2023-05-06T12:59:37;2.92;;;1.63;;
60318;SDS011;46163;52.306;5.634;2023-05-06T13:02:03;2.45;;;1.40;;
60318;SDS011;46163;52.306;5.634;2023-05-06T13:04:29;1.60;;;1.50;;
60318;SDS011;46163;52.306;5.634;2023-05-06T13:06:55;1.38;;;1.15;;
60318;SDS011;46163;52.306;5.634;2023-05-06T13:09:21;3.15;;;1.38;;
60318;SDS011;46163;52.306;5.634;2023-05-06T13:11:47;3.30;;;1.20;;
60318;SDS011;46163;52.306;5.634;2023-05-06T13:14:12;1.95;;;1.40;;
60318;SDS011;46163;52.306;5.634;2023-05-06T13:16:38;2.13;;;1.38;;
60318;SDS011;46163;52.306;5.634;2023-05-06T13:19:06;1.70;;;1.38;;
60318;SDS011;46163;52.306;5.634;2023-05-06T13:21:34;1.95;;;1.50;;
60318;SDS011;46163;52.306;5.634;2023-05-06T13:24:04;1.95;;;1.40;;
60318;SDS011;46163;52.306;5.634;2023-05-06T13:26:31;2.83;;;1.33;;
60318;SDS011;46163;52.306;5.634;2023-05-06T13:28:58;2.27;;;1.20;;
60318;SDS011;46163;52.306;5.634;2023-05-06T13:31:24;1.95;;;1.30;;
60318;SDS011;46163;52.306;5.634;2023-05-06T13:33:52;2.33;;;1.17;;
60318;SDS011;46163;52.306;5.634;2023-05-06T13:36:18;1.58;;;1.33;;
60318;SDS011;46163;52.306;5.634;2023-05-06T13:38:43;1.85;;;1.40;;
60318;SDS011;46163;52.306;5.634;2023-05-06T13:41:09;1.35;;;1.17;;
60318;SDS011;46163;52.306;5.634;2023-05-06T13:43:34;1.67;;;1.13;;
60318;SDS011;46163;52.306;5.634;2023-05-06T13:46:00;1.40;;;1.30;;
60318;SDS011;46163;52.306;5.634;2023-05-06T13:48:25;1.48;;;1.30;;
60318;SDS011;46163;52.306;5.634;2023-05-06T13:50:51;1.30;;;1.20;;
60318;SDS011;46163;52.306;5.634;2023-05-06T13:53:16;1.35;;;1.25;;
60318;SDS011;46163;52.306;5.634;2023-05-06T13:55:42;1.65;;;1.42;;
60318;SDS011;46163;52.306;5.634;2023-05-06T13:58:08;2.50;;;1.58;;
60318;SDS011;46163;52.306;5.634;2023-05-06T14:00:34;2.45;;;1.35;;
60318;SDS011;46163;52.306;5.634;2023-05-06T14:03:00;1.30;;;1.25;;
60318;SDS011;46163;52.306;5.634;2023-05-06T14:05:26;1.50;;;1.40;;
60318;SDS011;46163;52.306;5.634;2023-05-06T14:07:52;2.35;;;1.50;;
60318;SDS011;46163;52.306;5.634;2023-05-06T14:10:18;2.08;;;1.42;;
60318;SDS011;46163;52.306;5.634;2023-05-06T14:12:45;2.17;;;1.60;;
60318;SDS011;46163;52.306;5.634;2023-05-06T14:15:11;2.00;;;1.55;;
60318;SDS011;46163;52.306;5.634;2023-05-06T14:17:39;1.77;;;1.48;;
60318;SDS011;46163;52.306;5.634;2023-05-06T14:20:05;1.33;;;1.20;;
60318;SDS011;46163;52.306;5.634;2023-05-06T14:22:31;1.67;;;1.35;;
60318;SDS011;46163;52.306;5.634;2023-05-06T14:24:57;1.38;;;1.27;;
60318;SDS011;46163;52.306;5.634;2023-05-06T14:27:23;1.75;;;1.30;;
60318;SDS011;46163;52.306;5.634;2023-05-06T14:29:48;1.30;;;1.20;;
60318;SDS011;46163;52.306;5.634;2023-05-06T14:32:14;1.67;;;1.35;;
60318;SDS011;46163;52.306;5.634;2023-05-06T14:34:39;1.73;;;1.45;;
60318;SDS011;46163;52.306;5.634;2023-05-06T14:37:05;2.03;;;1.40;;
60318;SDS011;46163;52.306;5.634;2023-05-06T14:39:32;1.38;;;1.30;;
60318;SDS011;46163;52.306;5.634;2023-05-06T14:41:57;1.08;;;1.02;;
60318;SDS011;46163;52.306;5.634;2023-05-06T14:44:23;1.98;;;1.17;;
60318;SDS011;46163;52.306;5.634;2023-05-06T14:46:49;1.52;;;1.30;;
60318;SDS011;46163;52.306;5.634;2023-05-06T14:49:14;1.60;;;1.38;;
60318;SDS011;46163;52.306;5.634;2023-05-06T14:51:43;1.65;;;1.50;;
60318;SDS011;46163;52.306;5.634;2023-05-06T14:54:09;1.45;;;1.35;;
60318;SDS011;46163;52.306;5.634;2023-05-06T14:56:35;1.20;;;1.10;;
60318;SDS011;46163;52.306;5.634;2023-05-06T14:59:01;1.30;;;1.20;;
60318;SDS011;46163;52.306;5.634;2023-05-06T15:01:27;1.38;;;1.27;;
60318;SDS011;46163;52.306;5.634;2023-05-06T15:03:54;2.50;;;1.30;;
60318;SDS011;46163;52.306;5.634;2023-05-06T15:06:20;1.40;;;1.30;;
60318;SDS011;46163;52.306;5.634;2023-05-06T15:08:46;1.30;;;1.20;;
60318;SDS011;46163;52.306;5.634;2023-05-06T15:11:11;1.20;;;1.15;;
60318;SDS011;46163;52.306;5.634;2023-05-06T15:13:37;2.00;;;1.20;;
60318;SDS011;46163;52.306;5.634;2023-05-06T15:16:02;1.30;;;1.13;;
60318;SDS011;46163;52.306;5.634;2023-05-06T15:18:28;1.27;;;1.15;;
60318;SDS011;46163;52.306;5.634;2023-05-06T15:20:54;3.17;;;1.30;;
60318;SDS011;46163;52.306;5.634;2023-05-06T15:23:22;2.15;;;1.20;;